HIDDEN DAM (HENSLEY) (HID)

Elevation: 561' · FRESNO R basin · Operator: US Army Corps of Engineers

Provisional data, subject to change.
Query executed Friday at 15:02:40   clock

Select a sensor type for a plot of data.
Note: Reservoir Flows are daily averages.

Earlier

Date RES ELE    STORAGE    RES CHG    TOC STO    ABV TOC    OUTFLOW    INFLOW    PPT INC    TEMP MN    TEMP MX    WINDLEN    EVP PAN   
 FEET   AF   AF   AF   AF   CFS   CFS   INCHES   DEG F   DEG F   MILES   INCHES  
04/28/2016 511.10 50414 -83 76977 -26563 116 80 0.00 7 22 74 0.19
04/29/2016 511.01 50307 -107 77697 -27390 118 72 0.00 12 26 116 0.25
04/30/2016 510.92 50200 -107 78538 -28338 128 83 0.00 10 27 99 0.25
05/01/2016 510.82 50081 -119 79417 -29336 128 78 0.00 12 30 121 0.30
05/02/2016 510.69 49928 -153 80300 -30372 128 61 0.00 15 31 103 0.30
05/03/2016 510.61 49833 -95 81228 -31395 109 70 0.00 13 31 78 0.24
05/04/2016 510.55 49762 -71 82166 -32404 100 70 0.00 15 27 100 0.19
05/05/2016 510.48 49680 -82 83097 -33417 101 64 0.00 13 22 90 0.14
05/06/2016 510.42 49609 -71 83834 -34225 101 70 0.00 13 22 79 0.15
05/07/2016 510.39 49573 -36 84517 -34944 101 88 0.00 11 23 83 0.16
05/08/2016 510.35 49526 -47 85401 -35875 101 83 0.00 9 23 69 0.16
05/09/2016 510.30 49467 -59 85813 -36346 101 80 0.00 15 28 86 0.25
05/10/2016 510.21 49362 -105 86505 -37143 111 68 0.01 13 30 93 0.28
05/11/2016 510.08 49214 -224 87223 -38009 126 62 0.00 16 33 92 0.31
05/12/2016 509.96 49068 -146 87974 -38906 125 63 0.03 17 36 102 0.34
05/13/2016 509.74 48810 -258 88271 -39461 125 6 0.00 14 34 116 0.32
05/14/2016 509.63 48682 -128 88547 -39865 125 70 0.00 11 27 130 0.28
05/15/2016 509.44 48460 -222 88804 -40344 125 23 0.00 12 28 129 0.29
05/16/2016 509.37 48379 -81 88979 -40600 125 94 0.02 12 30 121 0.30
05/17/2016 509.21 48192 -187 89058 -40866 138 55 0.00 15 32 98 0.31
05/18/2016 509.01 47960 -232 89251 -41291 160 55 0.00 18 35 119 0.34
05/19/2016 508.78 47694 -266 89450 -41756 160 36 0.00 14 32 137 0.33
05/20/2016 508.61 47496 1362 89633 -42137 156 64 0.00 10 22 113 0.24
05/21/2016 508.44 47299 964 89793 -42495 148 57 0.00 7 23 116 0.25
05/22/2016 508.31 47148 1184 89946 -41463 148 81 0.00 8 25 113 0.26
05/23/2016 508.16 46980 -1503 90000 -43020 137 61 0.01 9 25 118 0.25
05/24/2016 507.98 46774 -206 90000 -43226 136 41 0.00 11 26 130 0.27
05/25/2016 507.78 46545 -229 89891 -43346 149 42 0.00 11 26 128 0.25
05/26/2016 507.66 46408 -137 89812 -43404 155 95 0.00 11 28 92 0.27
05/27/2016 -- -- -- -- -- -- -- -- -- -- -- --

Later | Latest

Warning! This data is preliminary and subject to revision.

Show HID Map | Plot HID Data | 1 Month HID Data | Real-Time HID Data | HID Info